createdAt,value
2017-12-22T00:01:14.000Z,6.30
2017-12-22T00:03:42.183Z,6.30
2017-12-22T00:06:10.319Z,6.30
2017-12-22T00:08:38.498Z,6.40
2017-12-22T00:11:06.631Z,6.40
2017-12-22T00:13:35.572Z,6.40
2017-12-22T00:16:03.709Z,6.40
2017-12-22T00:18:31.884Z,6.40
2017-12-22T00:21:00.039Z,6.40
2017-12-22T00:23:28.204Z,6.40
2017-12-22T00:25:56.339Z,6.40
2017-12-22T00:28:24.502Z,6.40
2017-12-22T00:30:52.634Z,6.40
2017-12-22T00:33:20.806Z,6.40
2017-12-22T00:35:49.732Z,6.40
2017-12-22T00:38:17.903Z,6.40
2017-12-22T00:40:46.038Z,6.40
2017-12-22T00:43:14.206Z,6.40
2017-12-22T00:45:54.050Z,6.40
2017-12-22T00:48:22.214Z,6.40
2017-12-22T00:50:50.342Z,6.40
2017-12-22T00:53:18.479Z,6.50
2017-12-22T00:55:46.637Z,6.50
2017-12-22T00:58:14.765Z,6.50
2017-12-22T01:00:42.926Z,6.40
2017-12-22T01:03:11.051Z,6.50
2017-12-22T01:05:39.215Z,6.50
2017-12-22T01:08:07.342Z,6.40
2017-12-22T01:10:35.505Z,6.40
2017-12-22T01:13:03.625Z,6.40
2017-12-22T01:15:37.390Z,6.40
2017-12-22T01:18:11.077Z,6.40
2017-12-22T01:20:39.252Z,6.40
2017-12-22T01:23:07.383Z,6.40
2017-12-22T01:25:35.537Z,6.40
2017-12-22T01:28:03.661Z,6.40
2017-12-22T01:30:31.834Z,6.40
2017-12-22T01:32:59.971Z,6.50
2017-12-22T01:35:28.122Z,6.40
2017-12-22T01:37:56.257Z,6.50
2017-12-22T01:40:24.419Z,6.50
2017-12-22T01:42:52.547Z,6.50
2017-12-22T01:45:20.705Z,6.50
2017-12-22T01:47:48.846Z,6.50
2017-12-22T01:50:17.030Z,6.50
2017-12-22T01:52:45.168Z,6.50
2017-12-22T01:55:13.326Z,6.50
2017-12-22T01:57:41.458Z,6.50
2017-12-22T02:00:09.611Z,6.50
2017-12-22T02:02:37.776Z,6.50
2017-12-22T02:05:05.950Z,6.50
2017-12-22T02:07:34.082Z,6.50
2017-12-22T02:10:02.242Z,6.50
2017-12-22T02:12:30.380Z,6.50
2017-12-22T02:14:58.545Z,6.50
2017-12-22T02:17:26.674Z,6.50
2017-12-22T02:19:54.843Z,6.50
2017-12-22T02:22:22.969Z,6.50
2017-12-22T02:24:51.133Z,6.50
2017-12-22T02:27:19.275Z,6.50
2017-12-22T02:29:47.454Z,6.50
2017-12-22T02:32:15.591Z,6.50
2017-12-22T02:34:44.516Z,6.50
2017-12-22T02:37:12.659Z,6.50
2017-12-22T02:39:40.973Z,6.50
2017-12-22T02:42:09.108Z,6.40
2017-12-22T02:44:38.019Z,6.40
2017-12-22T02:47:06.175Z,6.40
2017-12-22T02:49:34.318Z,6.40
2017-12-22T02:52:02.482Z,6.40
2017-12-22T02:54:30.623Z,6.50
2017-12-22T02:56:58.783Z,6.40
2017-12-22T02:59:27.360Z,6.40
2017-12-22T03:01:55.517Z,6.40
2017-12-22T03:04:24.423Z,6.40
2017-12-22T03:06:52.584Z,6.40
2017-12-22T03:09:20.718Z,6.40
2017-12-22T03:11:48.886Z,6.40
2017-12-22T03:14:17.020Z,6.40
2017-12-22T03:16:45.179Z,6.50
2017-12-22T03:19:14.082Z,6.40
2017-12-22T03:21:42.245Z,6.40
2017-12-22T03:24:11.140Z,6.40
2017-12-22T03:26:39.293Z,6.40
2017-12-22T03:29:08.186Z,6.40
2017-12-22T03:31:36.342Z,6.30
2017-12-22T03:34:04.481Z,6.30
2017-12-22T03:36:32.642Z,6.30
2017-12-22T03:39:00.782Z,6.30
2017-12-22T03:41:29.706Z,6.30
2017-12-22T03:43:57.841Z,6.30
2017-12-22T03:46:25.993Z,6.30
2017-12-22T03:48:54.126Z,6.30
2017-12-22T03:51:22.284Z,6.30
2017-12-22T03:53:51.207Z,6.40
2017-12-22T03:56:19.365Z,6.40
2017-12-22T03:58:47.493Z,6.40
2017-12-22T04:01:15.646Z,6.40
2017-12-22T04:03:43.789Z,6.40
2017-12-22T04:06:11.951Z,6.40
2017-12-22T04:08:40.084Z,6.40
2017-12-22T04:11:08.240Z,6.40
2017-12-22T04:13:36.364Z,6.40
2017-12-22T04:16:04.510Z,6.40
2017-12-22T04:18:32.640Z,6.30
2017-12-22T04:21:00.791Z,6.30
2017-12-22T04:23:28.917Z,6.30
2017-12-22T04:25:57.082Z,6.30
2017-12-22T04:28:25.210Z,6.20
2017-12-22T04:30:53.356Z,6.10
2017-12-22T04:33:21.478Z,6.10
2017-12-22T04:35:50.394Z,6.00
2017-12-22T04:38:18.529Z,6.00
2017-12-22T04:40:46.678Z,6.00
2017-12-22T04:43:15.573Z,5.90
2017-12-22T04:45:43.725Z,5.90
2017-12-22T04:48:11.845Z,5.90
2017-12-22T04:50:40.016Z,5.80
2017-12-22T04:53:08.134Z,5.80
2017-12-22T04:55:36.290Z,5.80
2017-12-22T04:58:04.410Z,5.80
2017-12-22T05:00:32.562Z,5.80
2017-12-22T05:03:00.703Z,5.80
2017-12-22T05:05:28.862Z,5.80
2017-12-22T05:07:56.997Z,5.90
2017-12-22T05:10:25.887Z,5.90
2017-12-22T05:12:54.040Z,5.90
2017-12-22T05:15:22.163Z,5.90
2017-12-22T05:17:50.319Z,5.90
2017-12-22T05:20:18.438Z,6.00
2017-12-22T05:22:46.602Z,6.00
2017-12-22T05:25:14.736Z,6.00
2017-12-22T05:27:42.888Z,6.10
2017-12-22T05:30:11.015Z,6.10
2017-12-22T05:32:39.167Z,6.10
2017-12-22T05:35:07.295Z,6.10
2017-12-22T05:37:35.455Z,6.10
2017-12-22T05:40:03.577Z,6.20
2017-12-22T05:42:31.732Z,6.20
2017-12-22T05:44:59.854Z,6.20
2017-12-22T05:47:28.015Z,6.20
2017-12-22T05:49:56.143Z,6.30
2017-12-22T05:52:24.289Z,6.20
2017-12-22T05:54:52.427Z,6.30
2017-12-22T05:57:20.584Z,6.30
2017-12-22T05:59:48.716Z,6.20
2017-12-22T06:02:16.863Z,6.20
2017-12-22T06:04:44.995Z,6.20
2017-12-22T06:07:13.150Z,6.20
2017-12-22T06:09:41.275Z,6.10
2017-12-22T06:12:09.438Z,6.10
2017-12-22T06:14:37.563Z,6.10
2017-12-22T06:17:05.714Z,6.00
2017-12-22T06:19:33.843Z,6.10
2017-12-22T06:22:01.997Z,6.10
2017-12-22T06:24:30.136Z,6.10
2017-12-22T06:26:58.290Z,6.10
2017-12-22T06:29:26.465Z,6.10
2017-12-22T06:31:55.358Z,6.10
2017-12-22T06:34:23.483Z,6.00
2017-12-22T06:36:52.406Z,6.10
2017-12-22T06:39:20.542Z,6.10
2017-12-22T06:41:48.699Z,6.10
2017-12-22T06:44:16.823Z,6.10
2017-12-22T06:46:44.976Z,6.10
2017-12-22T06:49:13.106Z,6.10
2017-12-22T06:51:41.263Z,6.10
2017-12-22T06:54:09.399Z,6.10
2017-12-22T06:56:37.553Z,6.20
2017-12-22T06:59:05.679Z,6.20
2017-12-22T07:01:33.835Z,6.20
2017-12-22T07:04:01.960Z,6.20
2017-12-22T07:06:30.123Z,6.20
2017-12-22T07:08:58.254Z,6.20
2017-12-22T07:11:26.398Z,6.20
2017-12-22T07:13:54.525Z,6.20
2017-12-22T07:16:22.687Z,6.20
2017-12-22T07:18:50.814Z,6.20
2017-12-22T07:21:18.968Z,6.20
2017-12-22T07:23:47.099Z,6.20
2017-12-22T07:26:15.253Z,6.20
2017-12-22T07:28:43.387Z,6.20
2017-12-22T07:31:11.538Z,6.20
2017-12-22T07:33:39.670Z,6.10
2017-12-22T07:36:08.559Z,6.10
2017-12-22T07:38:36.705Z,6.10
2017-12-22T07:41:04.837Z,6.10
2017-12-22T07:43:32.995Z,6.00
2017-12-22T07:46:01.125Z,6.00
2017-12-22T07:48:29.284Z,6.00
2017-12-22T07:50:57.413Z,6.00
2017-12-22T07:53:25.561Z,5.90
2017-12-22T07:55:53.699Z,5.90
2017-12-22T07:58:21.849Z,5.90
2017-12-22T08:00:49.972Z,5.90
2017-12-22T08:03:18.140Z,5.90
2017-12-22T08:05:46.256Z,5.90
2017-12-22T08:08:14.414Z,5.90
2017-12-22T08:10:42.573Z,5.90
2017-12-22T08:13:11.512Z,5.90
2017-12-22T08:15:39.639Z,5.90
2017-12-22T08:18:08.567Z,5.90
2017-12-22T08:20:36.698Z,5.90
2017-12-22T08:23:05.617Z,5.90
2017-12-22T08:25:33.741Z,5.90
2017-12-22T08:28:01.910Z,5.90
2017-12-22T08:30:30.049Z,5.90
2017-12-22T08:32:58.221Z,5.90
2017-12-22T08:35:26.363Z,6.00
2017-12-22T08:37:55.294Z,6.00
2017-12-22T08:40:23.419Z,6.00
2017-12-22T08:42:52.346Z,6.10
2017-12-22T08:45:20.474Z,6.10
2017-12-22T08:47:48.706Z,6.20
2017-12-22T08:56:23.670Z,6.30
2017-12-22T08:58:51.818Z,6.40
2017-12-22T09:01:19.946Z,6.40
2017-12-22T09:03:48.106Z,6.50
2017-12-22T09:06:16.228Z,6.50
2017-12-22T09:08:44.378Z,6.50
2017-12-22T09:11:12.517Z,6.50
2017-12-22T09:13:40.669Z,6.60
2017-12-22T09:16:08.803Z,6.50
2017-12-22T09:18:36.963Z,6.60
2017-12-22T09:21:05.095Z,6.50
2017-12-22T09:23:33.250Z,6.60
2017-12-22T09:26:01.425Z,6.50
2017-12-22T09:28:29.581Z,6.50
2017-12-22T09:30:57.737Z,6.50
2017-12-22T09:33:25.930Z,6.50
2017-12-22T09:35:54.086Z,6.50
2017-12-22T09:38:22.992Z,6.60
2017-12-22T09:40:51.541Z,6.60
2017-12-22T09:43:19.716Z,6.70
2017-12-22T09:45:47.860Z,6.70
2017-12-22T09:48:16.811Z,6.90
2017-12-22T09:50:44.938Z,6.80
2017-12-22T09:53:13.864Z,7.00
2017-12-22T09:55:42.001Z,7.00
2017-12-22T09:58:10.919Z,7.10
2017-12-22T10:00:39.041Z,7.00
2017-12-22T10:03:07.204Z,7.00
2017-12-22T10:05:35.337Z,7.10
2017-12-22T10:08:04.691Z,7.10
2017-12-22T10:10:32.818Z,7.10
2017-12-22T10:13:00.983Z,7.20
2017-12-22T10:15:29.114Z,7.20
2017-12-22T10:17:57.262Z,7.30
2017-12-22T10:20:25.396Z,7.30
2017-12-22T10:22:53.547Z,7.20
2017-12-22T10:25:21.666Z,7.20
2017-12-22T10:27:49.899Z,7.10
2017-12-22T10:30:18.009Z,7.10
2017-12-22T10:32:46.168Z,7.30
2017-12-22T10:35:15.052Z,7.50
2017-12-22T10:37:43.233Z,7.50
2017-12-22T10:40:11.358Z,7.50
2017-12-22T10:42:39.511Z,7.50
2017-12-22T10:45:07.633Z,7.50
2017-12-22T10:47:35.795Z,7.40
2017-12-22T10:50:03.933Z,7.40
2017-12-22T10:52:32.114Z,7.30
2017-12-22T10:55:00.243Z,7.30
2017-12-22T10:57:28.402Z,7.30
2017-12-22T10:59:57.384Z,7.60
2017-12-22T11:02:25.539Z,7.50
2017-12-22T11:04:53.676Z,7.70
2017-12-22T11:07:21.878Z,7.80
2017-12-22T11:09:50.010Z,7.90
2017-12-22T11:12:18.168Z,8.00
2017-12-22T11:14:46.289Z,8.10
2017-12-22T11:17:14.446Z,8.10
2017-12-22T11:19:42.589Z,8.00
2017-12-22T11:22:11.486Z,7.90
2017-12-22T11:24:39.654Z,7.90
2017-12-22T11:27:08.552Z,8.00
2017-12-22T11:29:36.720Z,8.00
2017-12-22T11:32:05.613Z,8.40
2017-12-22T11:34:33.767Z,8.30
2017-12-22T11:37:01.899Z,8.60
2017-12-22T11:39:30.055Z,8.70
2017-12-22T11:41:58.172Z,8.80
2017-12-22T11:44:26.321Z,8.80
2017-12-22T11:46:54.456Z,8.80
2017-12-22T11:49:23.377Z,8.70
2017-12-22T11:51:51.496Z,8.70
2017-12-22T11:54:19.653Z,8.70
2017-12-22T11:56:47.777Z,8.50
2017-12-22T11:59:15.932Z,8.50
2017-12-22T12:01:44.050Z,8.40
2017-12-22T12:04:12.188Z,8.30
2017-12-22T12:06:40.320Z,8.10
2017-12-22T12:09:08.474Z,8.10
2017-12-22T12:11:36.607Z,8.00
2017-12-22T12:14:04.760Z,7.90
2017-12-22T12:16:33.666Z,7.80
2017-12-22T12:19:02.581Z,7.80
2017-12-22T12:21:30.706Z,7.80
2017-12-22T12:23:58.861Z,7.80
2017-12-22T12:26:27.125Z,7.80
2017-12-22T12:28:55.270Z,7.80
2017-12-22T12:31:23.465Z,7.80
2017-12-22T12:33:51.616Z,7.70
2017-12-22T12:36:19.774Z,7.70
2017-12-22T12:38:47.917Z,7.70
2017-12-22T12:41:16.056Z,7.60
2017-12-22T12:43:44.197Z,7.60
2017-12-22T12:46:12.328Z,7.60
2017-12-22T12:48:40.478Z,7.50
2017-12-22T12:51:08.597Z,7.50
2017-12-22T12:53:36.746Z,7.40
2017-12-22T12:56:04.897Z,7.40
2017-12-22T12:58:33.057Z,7.30
2017-12-22T13:01:01.192Z,7.30
2017-12-22T13:03:29.399Z,7.30
2017-12-22T13:05:57.523Z,7.30
2017-12-22T13:08:25.688Z,7.30
2017-12-22T13:10:53.831Z,7.20
2017-12-22T13:13:22.046Z,7.20
2017-12-22T13:15:50.286Z,7.10
2017-12-22T13:18:18.462Z,7.10
2017-12-22T13:20:46.610Z,7.00
2017-12-22T13:23:14.846Z,7.00
2017-12-22T13:25:43.033Z,7.00
2017-12-22T13:28:11.236Z,7.00
2017-12-22T13:30:39.405Z,6.90
2017-12-22T13:33:07.598Z,6.90
2017-12-22T13:35:35.728Z,6.80
2017-12-22T13:38:03.900Z,6.80
2017-12-22T13:40:32.025Z,6.80
2017-12-22T13:43:00.188Z,6.80
2017-12-22T13:45:28.338Z,6.80
2017-12-22T13:47:57.267Z,6.70
2017-12-22T13:50:25.425Z,6.70
2017-12-22T13:52:53.564Z,6.70
2017-12-22T13:55:21.731Z,6.70
2017-12-22T13:57:49.883Z,6.60
2017-12-22T14:00:18.066Z,6.60
2017-12-22T14:02:54.674Z,6.60
2017-12-22T14:05:22.874Z,6.60
2017-12-22T14:07:51.012Z,6.60
2017-12-22T14:10:19.175Z,6.60
2017-12-22T14:12:48.074Z,6.60
2017-12-22T14:15:16.236Z,6.50
2017-12-22T14:17:44.401Z,6.50
2017-12-22T14:20:12.587Z,6.50
2017-12-22T14:22:40.731Z,6.50
2017-12-22T14:25:08.911Z,6.50
2017-12-22T14:27:37.046Z,6.40
2017-12-22T14:30:05.209Z,6.40
2017-12-22T14:32:33.357Z,6.30
2017-12-22T14:35:02.286Z,6.30
2017-12-22T14:37:30.442Z,6.20
2017-12-22T14:39:58.622Z,6.20
2017-12-22T14:42:26.821Z,6.20
2017-12-22T14:44:54.992Z,6.10
2017-12-22T14:47:23.123Z,6.10
2017-12-22T14:49:51.298Z,6.10
2017-12-22T14:52:19.438Z,6.10
2017-12-22T14:54:47.593Z,6.10
2017-12-22T14:57:15.730Z,6.10
2017-12-22T14:59:43.887Z,6.10
2017-12-22T15:02:12.114Z,6.00
2017-12-22T15:04:40.272Z,6.00
2017-12-22T15:07:08.495Z,6.00
2017-12-22T15:09:36.747Z,5.90
2017-12-22T15:12:04.885Z,5.90
2017-12-22T15:14:33.051Z,5.90
2017-12-22T15:17:01.194Z,5.80
2017-12-22T15:19:29.417Z,5.80
2017-12-22T15:21:57.565Z,5.80
2017-12-22T15:24:26.520Z,5.70
2017-12-22T15:26:55.534Z,5.60
2017-12-22T15:29:23.739Z,5.60
2017-12-22T15:31:51.880Z,5.50
2017-12-22T15:34:20.065Z,5.50
2017-12-22T15:36:48.997Z,5.40
2017-12-22T15:39:17.171Z,5.40
2017-12-22T15:41:45.325Z,5.40
2017-12-22T15:44:13.531Z,5.30
2017-12-22T15:46:41.670Z,5.30
2017-12-22T15:49:09.852Z,5.20
2017-12-22T15:51:38.015Z,5.20
2017-12-22T15:54:06.181Z,5.20
2017-12-22T15:56:35.096Z,5.20
2017-12-22T15:59:03.280Z,5.20
2017-12-22T16:01:31.419Z,5.20
2017-12-22T16:03:59.592Z,5.10
2017-12-22T16:06:27.755Z,5.00
2017-12-22T16:08:56.686Z,5.00
2017-12-22T16:11:24.820Z,5.00
2017-12-22T16:13:53.011Z,5.00
2017-12-22T16:16:21.105Z,5.00
2017-12-22T16:18:49.271Z,5.00
2017-12-22T16:21:17.404Z,4.90
2017-12-22T16:23:45.559Z,4.90
2017-12-22T16:26:13.686Z,4.90
2017-12-22T16:28:41.860Z,4.90
2017-12-22T16:31:09.986Z,4.90
2017-12-22T16:33:38.142Z,4.90
2017-12-22T16:36:06.288Z,4.90
2017-12-22T16:38:34.410Z,4.90
2017-12-22T16:41:02.566Z,4.90
2017-12-22T16:43:30.701Z,4.80
2017-12-22T16:45:58.873Z,4.80
2017-12-22T16:48:26.997Z,4.80
2017-12-22T16:50:55.186Z,4.70
2017-12-22T16:53:23.334Z,4.70
2017-12-22T16:55:51.490Z,4.70
2017-12-22T16:58:19.621Z,4.60
2017-12-22T17:00:47.775Z,4.60
2017-12-22T17:03:15.974Z,4.60
2017-12-22T17:05:44.906Z,4.50
2017-12-22T17:08:13.058Z,4.50
2017-12-22T17:10:41.257Z,4.50
2017-12-22T17:13:09.384Z,4.50
2017-12-22T17:15:38.309Z,4.50
2017-12-22T17:18:06.430Z,4.40
2017-12-22T17:20:34.599Z,4.40
2017-12-22T17:23:02.746Z,4.40
2017-12-22T17:25:30.905Z,4.40
2017-12-22T17:27:59.048Z,4.40
2017-12-22T17:30:27.961Z,4.40
2017-12-22T17:32:56.097Z,4.30
2017-12-22T17:35:24.348Z,4.30
2017-12-22T17:37:53.274Z,4.30
2017-12-22T17:40:21.448Z,4.30
2017-12-22T17:42:49.701Z,4.30
2017-12-22T17:45:17.850Z,4.30
2017-12-22T17:47:46.002Z,4.30
2017-12-22T17:50:14.166Z,4.30
2017-12-22T17:52:42.297Z,4.30
2017-12-22T17:55:10.458Z,4.20
2017-12-22T17:57:38.585Z,4.20
2017-12-22T18:00:06.755Z,4.20
2017-12-22T18:02:34.920Z,4.20
2017-12-22T18:05:03.078Z,4.20
2017-12-22T18:07:31.303Z,4.20
2017-12-22T18:09:59.523Z,4.20
2017-12-22T18:12:28.435Z,4.30
2017-12-22T18:14:56.720Z,4.20
2017-12-22T18:17:25.010Z,4.30
2017-12-22T18:19:53.178Z,4.20
2017-12-22T18:22:21.305Z,4.30
2017-12-22T18:24:49.531Z,4.30
2017-12-22T18:27:17.773Z,4.30
2017-12-22T18:29:46.187Z,4.30
2017-12-22T18:32:14.370Z,4.20
2017-12-22T18:34:42.879Z,4.20
2017-12-22T18:37:11.025Z,4.20
2017-12-22T18:39:39.169Z,4.20
2017-12-22T18:42:07.298Z,4.10
2017-12-22T18:44:35.481Z,4.10
2017-12-22T18:47:03.616Z,4.10
2017-12-22T18:49:31.776Z,4.10
2017-12-22T18:51:59.939Z,4.00
2017-12-22T18:54:28.107Z,4.00
2017-12-22T18:56:56.251Z,4.00
2017-12-22T18:59:24.414Z,4.00
2017-12-22T19:01:52.579Z,4.00
2017-12-22T19:04:20.738Z,4.00
2017-12-22T19:06:48.958Z,4.00
2017-12-22T19:09:17.365Z,4.00
2017-12-22T19:11:46.492Z,4.00
2017-12-22T19:14:14.899Z,3.90
2017-12-22T19:16:43.460Z,4.00
2017-12-22T19:19:11.609Z,3.90
2017-12-22T19:21:39.778Z,3.90
2017-12-22T19:24:07.906Z,3.90
2017-12-22T19:26:36.077Z,3.90
2017-12-22T19:29:04.210Z,3.90
2017-12-22T19:31:32.418Z,3.90
2017-12-22T19:34:00.542Z,3.90
2017-12-22T19:36:28.716Z,3.90
2017-12-22T19:38:56.839Z,3.90
2017-12-22T19:41:25.001Z,3.90
2017-12-22T19:43:53.129Z,3.90
2017-12-22T19:46:21.330Z,3.90
2017-12-22T19:48:49.471Z,3.90
2017-12-22T19:51:17.630Z,3.90
2017-12-22T19:53:46.534Z,3.90
2017-12-22T19:56:14.732Z,3.90
2017-12-22T19:58:42.861Z,3.90
2017-12-22T20:01:11.013Z,3.90
2017-12-22T20:03:39.155Z,3.90
2017-12-22T20:06:08.205Z,3.90
2017-12-22T20:08:36.401Z,3.80
2017-12-22T20:11:04.566Z,3.80
2017-12-22T20:13:32.689Z,3.80
2017-12-22T20:16:00.841Z,3.80
2017-12-22T20:18:28.990Z,3.90
2017-12-22T20:20:57.161Z,3.90
2017-12-22T20:23:25.294Z,3.90
2017-12-22T20:25:53.465Z,3.90
2017-12-22T20:28:21.599Z,3.90
2017-12-22T20:30:49.765Z,3.90
2017-12-22T20:33:17.896Z,3.90
2017-12-22T20:35:46.067Z,3.90
2017-12-22T20:38:14.201Z,3.90
2017-12-22T20:40:42.362Z,3.90
2017-12-22T20:43:10.531Z,3.90
2017-12-22T20:45:38.693Z,3.90
2017-12-22T20:48:06.824Z,4.00
2017-12-22T20:50:34.988Z,4.00
2017-12-22T20:53:03.125Z,4.00
2017-12-22T20:55:31.287Z,4.00
2017-12-22T20:57:59.494Z,4.10
2017-12-22T21:00:27.655Z,4.10
2017-12-22T21:02:57.295Z,4.20
2017-12-22T21:05:25.453Z,4.10
2017-12-22T21:07:53.682Z,4.20
2017-12-22T21:10:21.938Z,4.20
2017-12-22T21:12:50.105Z,4.30
2017-12-22T21:15:18.286Z,4.30
2017-12-22T21:17:47.443Z,4.40
2017-12-22T21:20:15.615Z,4.40
2017-12-22T21:22:43.821Z,4.40
2017-12-22T21:25:12.005Z,4.40
2017-12-22T21:27:40.157Z,4.50
2017-12-22T21:30:08.354Z,4.50
2017-12-22T21:32:36.533Z,4.50
2017-12-22T21:35:04.670Z,4.50
2017-12-22T21:37:32.846Z,4.50
2017-12-22T21:40:00.998Z,4.50
2017-12-22T21:42:29.158Z,4.50
2017-12-22T21:44:58.062Z,4.50
2017-12-22T21:47:26.216Z,4.40
2017-12-22T21:49:55.109Z,4.40
2017-12-22T21:52:23.298Z,4.40
2017-12-22T21:54:51.429Z,4.50
2017-12-22T21:57:19.585Z,4.40
2017-12-22T21:59:47.714Z,4.50
